Time;durP1;ratioP1;P1;durP2;ratioP2;P2;SDS_P1;SDS_P2;PMS_P1;PMS_P2;Temp;Humidity;BMP_temperature;BMP_pressure;BME280_temperature;BME280_humidity;BME280_pressure;Samples;Min_cycle;Max_cycle;Signal;HPM_P1;HPM_P2
2022/05/15 00:00:37;;;;;;;;;;;;;;;17.66;44.95;100915.25;4998125;28;6812;-71
2022/05/15 00:00:41;;;;;;;;;;;;;;;17.60;45.36;100916.84;4998676;28;6992;-71
2022/05/15 00:03:18;;;;;;;;;;;;;;;17.52;45.15;100917.47;4999945;28;6804;-71
2022/05/15 00:05:49;;;;;;;;;;;;;;;17.45;45.58;100911.25;4988626;28;6804;-71
2022/05/15 00:08:15;;;;;;;;;;;;;;;17.38;45.22;100909.31;4974597;28;6875;-71
2022/05/15 00:10:43;;;;;;;;;;;;;;;17.31;45.48;100903.97;4999826;28;7213;-71
2022/05/15 00:13:09;;;;;;;;;;;;;;;17.27;45.82;100909.03;4999912;28;7267;-71
2022/05/15 00:15:36;;;;;;;;;;;;;;;17.23;45.98;100908.06;5000711;28;6800;-71
2022/05/15 00:18:03;;;;;;;;;;;;;;;17.16;45.99;100911.28;4998027;28;7170;-71
2022/05/15 00:20:30;;;;;;;;;;;;;;;17.12;46.10;100912.91;5001878;28;6811;-71
2022/05/15 00:22:56;;;;;;;;;;;;;;;17.06;46.27;100911.03;5000227;28;6791;-71
2022/05/15 00:25:22;;;;;;;;;;;;;;;17.01;45.87;100915.19;5007388;28;7860;-71
2022/05/15 00:27:48;;;;;;;;;;;;;;;16.95;46.45;100909.78;4988132;28;6784;-71
2022/05/15 00:30:19;;;;;;;;;;;;;;;16.88;46.35;100907.84;5005935;28;6783;-71
2022/05/15 00:32:45;;;;;;;;;;;;;;;16.80;46.66;100905.94;5001516;28;7178;-71
2022/05/15 00:35:11;;;;;;;;;;;;;;;16.74;46.36;100910.91;5003011;28;6800;-71
2022/05/15 00:37:37;;;;;;;;;;;;;;;16.68;46.95;100910.69;5002193;28;6815;-71
2022/05/15 00:40:05;;;;;;;;;;;;;;;16.62;46.97;100913.13;5002190;28;7252;-71
2022/05/15 00:42:31;;;;;;;;;;;;;;;16.58;47.08;100906.97;5005132;28;6784;-71
2022/05/15 00:44:57;;;;;;;;;;;;;;;16.56;47.46;100903.44;4996444;28;7192;-71
2022/05/15 00:47:22;;;;;;;;;;;;;;;16.55;47.28;100895.63;5002426;28;8614;-71
2022/05/15 00:49:50;;;;;;;;;;;;;;;16.52;47.11;100894.72;5002349;28;6968;-71
2022/05/15 00:52:26;;;;;;;;;;;;;;;16.48;47.44;100894.56;5002948;28;7927;-71
2022/05/15 00:55:02;;;;;;;;;;;;;;;16.46;47.46;100903.97;4990553;28;6983;-71
2022/05/15 00:57:47;;;;;;;;;;;;;;;16.41;47.31;100905.53;4979797;28;7432;-71
2022/05/15 01:00:23;;;;;;;;;;;;;;;16.35;47.58;100912.25;5001737;28;6816;-71
2022/05/15 01:03:08;;;;;;;;;;;;;;;16.29;47.79;100911.19;4991674;28;6815;-71
2022/05/15 01:05:44;;;;;;;;;;;;;;;16.23;47.61;100907.59;4979199;28;7277;-72
2022/05/15 01:08:11;;;;;;;;;;;;;;;16.17;48.00;100904.78;5002476;28;6812;-72
2022/05/15 01:10:45;;;;;;;;;;;;;;;16.14;47.87;100907.28;5000555;28;7015;-71
2022/05/15 01:13:13;;;;;;;;;;;;;;;16.11;48.41;100917.50;4996390;28;8163;-71
2022/05/15 01:15:42;;;;;;;;;;;;;;;16.08;48.07;100912.25;4995788;28;7022;-71
2022/05/15 01:18:08;;;;;;;;;;;;;;;16.04;48.23;100903.50;4999244;28;6795;-71
2022/05/15 01:20:36;;;;;;;;;;;;;;;16.00;48.66;100909.41;4998162;28;6883;-71
2022/05/15 01:23:02;;;;;;;;;;;;;;;15.98;49.07;100905.00;5003773;28;6800;-72
2022/05/15 01:25:33;;;;;;;;;;;;;;;15.94;48.87;100904.03;5004487;28;6784;-71
2022/05/15 01:28:15;;;;;;;;;;;;;;;15.90;48.70;100908.19;4964750;28;7009;-71
2022/05/15 01:30:46;;;;;;;;;;;;;;;15.87;49.40;100907.19;4996116;28;6852;-71
2022/05/15 01:33:11;;;;;;;;;;;;;;;15.82;49.54;100907.91;4995840;28;6824;-71
2022/05/15 01:35:38;;;;;;;;;;;;;;;15.80;49.24;100906.09;5000320;28;6860;-71
2022/05/15 01:38:05;;;;;;;;;;;;;;;15.77;49.15;100906.00;5002856;28;7120;-71
2022/05/15 01:40:31;;;;;;;;;;;;;;;15.75;49.36;100907.66;5000049;28;6791;-71
2022/05/15 01:42:58;;;;;;;;;;;;;;;15.72;49.62;100907.53;4978901;28;6995;-71
2022/05/15 01:45:24;;;;;;;;;;;;;;;15.72;49.47;100904.94;5015436;28;6807;-71
2022/05/15 01:47:50;;;;;;;;;;;;;;;15.68;49.80;100909.13;4996592;28;7699;-71
2022/05/15 01:50:16;;;;;;;;;;;;;;;15.66;49.71;100909.09;4999489;28;6874;-71
2022/05/15 01:52:43;;;;;;;;;;;;;;;15.65;49.54;100906.44;4998289;28;6795;-71
2022/05/15 01:55:10;;;;;;;;;;;;;;;15.63;50.28;100908.09;4994957;28;7852;-72
2022/05/15 01:57:36;;;;;;;;;;;;;;;15.58;49.76;100902.78;4985056;28;6897;-71
2022/05/15 02:00:06;;;;;;;;;;;;;;;15.54;49.79;100906.94;5001468;28;6777;-71
2022/05/15 02:02:34;;;;;;;;;;;;;;;15.50;50.41;100901.63;5000110;28;6819;-71
2022/05/15 02:05:01;;;;;;;;;;;;;;;15.45;50.05;100903.13;4998694;28;6978;-72
2022/05/15 02:07:26;;;;;;;;;;;;;;;15.43;49.79;100905.69;5005118;28;6791;-72
2022/05/15 02:09:52;;;;;;;;;;;;;;;15.39;49.72;100893.47;4999824;28;6800;-72
2022/05/15 02:12:18;;;;;;;;;;;;;;;15.36;50.00;100894.25;4998223;28;6803;-72
2022/05/15 02:14:44;;;;;;;;;;;;;;;15.33;50.76;100893.25;4999923;28;6883;-72
2022/05/15 02:17:09;;;;;;;;;;;;;;;15.31;50.16;100897.50;4999429;28;7277;-72
2022/05/15 02:19:35;;;;;;;;;;;;;;;15.28;50.44;100893.09;5001421;28;6799;-71
2022/05/15 02:22:01;;;;;;;;;;;;;;;15.27;50.83;100896.50;5001903;28;7186;-71
2022/05/15 02:24:26;;;;;;;;;;;;;;;15.25;50.42;100895.53;5000628;28;6788;-71
2022/05/15 02:26:52;;;;;;;;;;;;;;;15.21;51.26;100893.69;5003452;28;6787;-71
2022/05/15 02:29:18;;;;;;;;;;;;;;;15.14;50.83;100893.44;5000090;28;6807;-71
2022/05/15 02:31:44;;;;;;;;;;;;;;;15.10;50.70;100889.00;4973536;28;7065;-71
2022/05/15 02:34:09;;;;;;;;;;;;;;;15.07;51.46;100895.75;4976910;28;6919;-71
2022/05/15 02:36:36;;;;;;;;;;;;;;;15.04;50.60;100893.94;4999177;28;6878;-71
2022/05/15 02:39:03;;;;;;;;;;;;;;;15.00;50.94;100890.34;4997623;28;7063;-71
2022/05/15 02:41:30;;;;;;;;;;;;;;;14.97;51.23;100899.72;4995171;28;7900;-71
2022/05/15 02:43:56;;;;;;;;;;;;;;;14.96;50.75;100903.09;5001259;28;6981;-71
2022/05/15 02:46:22;;;;;;;;;;;;;;;14.94;51.46;100900.47;4997755;28;6883;-71
2022/05/15 02:51:32;;;;;;;;;;;;;;;14.90;51.97;100908.03;4999824;28;6847;-71
2022/05/15 02:53:58;;;;;;;;;;;;;;;14.88;52.62;100909.69;5002912;28;6783;-71
2022/05/15 02:56:28;;;;;;;;;;;;;;;14.85;51.95;100895.81;5004634;28;6799;-71
2022/05/15 02:58:54;;;;;;;;;;;;;;;14.85;52.43;100900.09;4987377;28;7626;-71
2022/05/15 03:01:20;;;;;;;;;;;;;;;14.84;52.59;100894.06;4998324;28;6922;-71
2022/05/15 03:03:46;;;;;;;;;;;;;;;14.83;52.72;100905.19;5002003;28;7732;-71
2022/05/15 03:06:13;;;;;;;;;;;;;;;14.84;52.33;100893.19;5000919;28;6807;-71
2022/05/15 03:08:44;;;;;;;;;;;;;;;14.89;52.36;100903.69;5002470;28;7277;-71
2022/05/15 03:11:10;;;;;;;;;;;;;;;14.92;53.37;100896.94;4994961;28;6876;-71
2022/05/15 03:13:36;;;;;;;;;;;;;;;14.98;53.22;100902.31;5002526;28;7931;-71
2022/05/15 03:16:04;;;;;;;;;;;;;;;15.04;52.78;100893.94;4998908;28;6795;-71
2022/05/15 03:18:30;;;;;;;;;;;;;;;15.07;52.64;100891.47;4997286;28;6807;-71
2022/05/15 03:20:55;;;;;;;;;;;;;;;15.10;52.50;100890.69;5003667;28;6765;-71
2022/05/15 03:23:21;;;;;;;;;;;;;;;15.11;52.29;100888.19;5011245;28;7009;-71
2022/05/15 03:25:47;;;;;;;;;;;;;;;15.10;52.15;100885.53;4992278;28;8413;-71
2022/05/15 03:28:13;;;;;;;;;;;;;;;15.10;53.11;100889.00;5003018;28;7816;-71
2022/05/15 03:30:44;;;;;;;;;;;;;;;15.10;52.87;100885.53;4997443;28;6764;-71
2022/05/15 03:33:10;;;;;;;;;;;;;;;15.08;53.00;100877.75;4984912;28;6970;-71
2022/05/15 03:35:38;;;;;;;;;;;;;;;15.10;52.67;100878.69;4983244;28;6808;-71
2022/05/15 03:38:06;;;;;;;;;;;;;;;15.12;52.98;100877.03;4997487;28;7198;-71
2022/05/15 03:40:33;;;;;;;;;;;;;;;15.17;53.33;100871.19;5000092;28;6965;-71
2022/05/15 03:42:58;;;;;;;;;;;;;;;15.23;53.29;100876.53;4998823;28;6799;-71
2022/05/15 03:45:24;;;;;;;;;;;;;;;15.27;53.29;100884.44;5000379;28;6918;-72
2022/05/15 03:47:54;;;;;;;;;;;;;;;15.31;52.11;100875.13;4998991;28;6784;-71
2022/05/15 03:50:24;;;;;;;;;;;;;;;15.34;52.62;100872.63;4997308;28;7033;-71
2022/05/15 03:52:50;;;;;;;;;;;;;;;15.34;52.63;100877.81;4979319;28;6876;-71
2022/05/15 03:55:16;;;;;;;;;;;;;;;15.35;52.14;100876.13;4996394;28;6788;-71
2022/05/15 03:57:43;;;;;;;;;;;;;;;15.35;52.49;100876.97;4961752;28;8015;-73
2022/05/15 04:00:15;;;;;;;;;;;;;;;15.36;52.10;100886.50;5003147;28;6884;-73
2022/05/15 04:02:42;;;;;;;;;;;;;;;15.39;52.33;100884.03;5003895;28;6804;-73
2022/05/15 04:05:10;;;;;;;;;;;;;;;15.45;53.08;100882.47;5002791;28;6811;-73
2022/05/15 04:07:50;;;;;;;;;;;;;;;15.49;52.14;100880.06;5001484;28;7235;-73
2022/05/15 04:10:19;;;;;;;;;;;;;;;15.56;53.10;100891.50;5001486;28;6820;-73
2022/05/15 04:12:45;;;;;;;;;;;;;;;15.62;52.38;100885.69;5002504;28;6803;-73
2022/05/15 04:15:12;;;;;;;;;;;;;;;15.66;52.95;100880.66;4989874;28;6887;-73
2022/05/15 04:17:50;;;;;;;;;;;;;;;15.72;52.50;100881.69;5018457;28;7296;-73
2022/05/15 04:20:21;;;;;;;;;;;;;;;15.78;52.25;100892.25;5000685;28;6803;-73
2022/05/15 04:22:48;;;;;;;;;;;;;;;15.89;52.92;100890.91;5001359;28;7051;-73
2022/05/15 04:25:13;;;;;;;;;;;;;;;16.03;53.04;100887.94;4999647;28;7068;-73
2022/05/15 04:27:41;;;;;;;;;;;;;;;16.18;53.09;100882.41;5005025;28;6973;-73
2022/05/15 04:30:13;;;;;;;;;;;;;;;16.36;52.73;100892.47;5001709;28;6819;-73
2022/05/15 04:32:41;;;;;;;;;;;;;;;16.54;52.31;100886.13;5000071;28;6804;-73
2022/05/15 04:35:09;;;;;;;;;;;;;;;16.72;52.44;100888.38;5003402;28;6816;-73
2022/05/15 04:37:35;;;;;;;;;;;;;;;16.91;52.71;100887.25;5006723;28;6891;-73
2022/05/15 04:40:02;;;;;;;;;;;;;;;17.13;52.72;100887.91;4981659;28;6776;-73
2022/05/15 04:42:28;;;;;;;;;;;;;;;17.37;52.39;100886.81;5003727;28;6811;-73
2022/05/15 04:44:54;;;;;;;;;;;;;;;17.61;52.47;100890.09;4982032;28;6933;-74
2022/05/15 04:47:19;;;;;;;;;;;;;;;17.85;51.83;100886.38;4999544;28;6866;-74
2022/05/15 04:49:45;;;;;;;;;;;;;;;18.11;51.44;100894.00;4995563;28;6796;-74
2022/05/15 04:52:11;;;;;;;;;;;;;;;18.38;51.69;100886.81;4999645;28;7302;-73
2022/05/15 04:54:38;;;;;;;;;;;;;;;18.62;51.52;100891.72;5001887;28;6820;-73
2022/05/15 04:57:05;;;;;;;;;;;;;;;18.86;50.46;100880.13;4996690;28;6812;-74
2022/05/15 04:59:30;;;;;;;;;;;;;;;19.08;50.55;100885.81;5002232;28;6973;-74
2022/05/15 05:01:58;;;;;;;;;;;;;;;19.31;49.58;100888.88;4997209;28;6776;-73
2022/05/15 05:04:24;;;;;;;;;;;;;;;19.51;49.49;100894.47;5002371;28;8174;-73
2022/05/15 05:06:50;;;;;;;;;;;;;;;19.71;49.60;100889.63;5005561;28;6888;-73
2022/05/15 05:09:16;;;;;;;;;;;;;;;19.93;48.79;100889.13;5003180;28;6792;-72
2022/05/15 05:11:42;;;;;;;;;;;;;;;20.13;48.65;100894.69;4995045;28;7868;-72
2022/05/15 05:14:08;;;;;;;;;;;;;;;20.31;48.00;100891.50;4998140;28;6796;-72
2022/05/15 05:16:34;;;;;;;;;;;;;;;20.46;47.58;100892.59;5004255;28;7094;-71
2022/05/15 05:19:01;;;;;;;;;;;;;;;20.58;47.45;100891.91;5003696;28;6815;-71
2022/05/15 05:21:27;;;;;;;;;;;;;;;20.73;47.67;100894.72;5001555;28;7087;-71
2022/05/15 05:23:53;;;;;;;;;;;;;;;20.93;47.43;100897.63;4999305;28;6938;-72
2022/05/15 05:26:19;;;;;;;;;;;;;;;21.13;46.85;100894.38;4991455;28;6780;-72
2022/05/15 05:28:46;;;;;;;;;;;;;;;21.33;46.99;100891.13;5005210;28;7624;-71
2022/05/15 05:31:12;;;;;;;;;;;;;;;21.58;46.73;100881.84;5003031;28;7097;-71
2022/05/15 05:33:38;;;;;;;;;;;;;;;21.84;46.13;100880.41;5000112;28;6812;-71
2022/05/15 05:36:06;;;;;;;;;;;;;;;22.05;45.49;100882.31;5004982;28;6808;-71
2022/05/15 05:38:32;;;;;;;;;;;;;;;22.20;44.92;100885.03;5000162;28;6812;-71
2022/05/15 05:40:58;;;;;;;;;;;;;;;22.32;44.65;100884.28;5003189;28;7011;-71
2022/05/15 05:43:24;;;;;;;;;;;;;;;22.41;43.92;100882.59;5000953;28;6792;-71
2022/05/15 05:45:49;;;;;;;;;;;;;;;22.47;43.88;100886.09;5003075;28;6776;-71
2022/05/15 05:48:15;;;;;;;;;;;;;;;22.49;42.91;100878.28;4999170;28;6847;-71
2022/05/15 05:50:41;;;;;;;;;;;;;;;22.42;42.76;100881.72;5003165;28;6875;-71
2022/05/15 05:53:07;;;;;;;;;;;;;;;22.31;42.33;100885.13;4999208;28;6796;-70
2022/05/15 05:55:33;;;;;;;;;;;;;;;22.21;42.29;100891.13;4994777;28;6807;-71
2022/05/15 05:57:59;;;;;;;;;;;;;;;22.11;42.22;100881.47;5002412;28;7328;-71
2022/05/15 06:00:30;;;;;;;;;;;;;;;22.02;42.18;100892.72;5019666;28;7254;-71
2022/05/15 06:04:39;;;;;;;;;;;;;;;21.96;42.47;100900.50;5001358;28;6883;-71
2022/05/15 06:05:43;;;;;;;;;;;;;;;21.93;42.39;100898.75;4998250;28;7010;-71
2022/05/15 06:08:09;;;;;;;;;;;;;;;21.90;42.20;100899.59;4997710;28;7576;-71
2022/05/15 06:10:35;;;;;;;;;;;;;;;21.88;42.33;100890.00;5002026;28;6823;-71
2022/05/15 06:13:01;;;;;;;;;;;;;;;21.84;42.01;100896.06;5001856;28;6863;-71
2022/05/15 06:15:27;;;;;;;;;;;;;;;21.75;41.81;100895.09;5002094;28;7184;-71
2022/05/15 06:17:53;;;;;;;;;;;;;;;21.67;42.42;100883.72;5005871;28;7845;-71
2022/05/15 06:20:18;;;;;;;;;;;;;;;21.67;42.21;100882.78;4980089;28;6906;-71
2022/05/15 06:22:44;;;;;;;;;;;;;;;21.69;42.53;100889.81;5015559;28;7237;-71
2022/05/15 06:25:10;;;;;;;;;;;;;;;21.74;42.57;100887.25;4996709;28;7204;-71
2022/05/15 06:27:39;;;;;;;;;;;;;;;21.80;42.64;100886.44;4999602;28;7166;-71
2022/05/15 06:30:06;;;;;;;;;;;;;;;21.85;42.53;100895.19;5000562;28;7026;-71
2022/05/15 06:32:32;;;;;;;;;;;;;;;21.85;42.46;100885.63;4999393;28;6808;-71
2022/05/15 06:34:58;;;;;;;;;;;;;;;21.85;42.05;100892.59;5000766;28;7012;-71
2022/05/15 06:37:24;;;;;;;;;;;;;;;21.82;42.31;100889.94;4999643;28;6819;-71
2022/05/15 06:39:50;;;;;;;;;;;;;;;21.81;42.10;100888.19;5003872;28;6776;-71
2022/05/15 06:42:16;;;;;;;;;;;;;;;21.85;42.34;100883.00;4998289;28;6783;-71
2022/05/15 06:44:42;;;;;;;;;;;;;;;21.91;42.13;100897.84;5002765;28;7141;-71
2022/05/15 06:47:09;;;;;;;;;;;;;;;21.99;42.37;100898.78;4985054;28;6875;-71
2022/05/15 06:49:35;;;;;;;;;;;;;;;22.06;42.08;100895.38;4996453;28;7352;-71
2022/05/15 06:52:00;;;;;;;;;;;;;;;22.16;42.24;100895.44;4991752;28;6800;-71
2022/05/15 06:54:26;;;;;;;;;;;;;;;22.28;42.09;100879.88;4983942;28;7613;-70
2022/05/15 06:59:37;;;;;;;;;;;;;;;22.58;41.85;100888.78;5002875;28;6892;-70
2022/05/15 07:02:03;;;;;;;;;;;;;;;22.72;41.67;100885.41;5002247;28;8216;-70
2022/05/15 07:04:28;;;;;;;;;;;;;;;22.86;41.63;100878.50;5001063;28;8779;-70
2022/05/15 07:06:54;;;;;;;;;;;;;;;23.05;41.67;100882.94;5013117;28;6922;-70
2022/05/15 07:09:20;;;;;;;;;;;;;;;23.23;41.06;100884.75;5001085;28;6816;-71
2022/05/15 07:11:45;;;;;;;;;;;;;;;23.40;40.70;100885.69;5002733;28;6902;-71
2022/05/15 07:14:11;;;;;;;;;;;;;;;23.60;40.96;100894.44;5003935;28;6807;-71
2022/05/15 07:16:37;;;;;;;;;;;;;;;23.76;40.66;100882.25;5002091;28;8199;-71
2022/05/15 07:19:03;;;;;;;;;;;;;;;23.93;40.56;100888.38;4997903;28;6799;-71
2022/05/15 07:21:29;;;;;;;;;;;;;;;24.11;40.12;100884.94;5000007;28;6792;-71
2022/05/15 07:23:54;;;;;;;;;;;;;;;24.31;39.60;100883.16;4998190;28;6809;-71
2022/05/15 07:26:20;;;;;;;;;;;;;;;24.45;39.51;100881.41;4995955;28;6898;-71
2022/05/15 07:28:50;;;;;;;;;;;;;;;24.59;39.16;100886.59;5000035;28;6792;-71
2022/05/15 07:31:20;;;;;;;;;;;;;;;24.74;39.35;100885.69;5001495;28;6815;-71
2022/05/15 07:33:47;;;;;;;;;;;;;;;24.87;38.48;100877.81;4999219;28;7139;-71
2022/05/15 07:36:13;;;;;;;;;;;;;;;24.99;38.51;100879.50;5005777;28;6808;-71
2022/05/15 07:38:38;;;;;;;;;;;;;;;25.10;38.39;100868.06;4985456;28;7046;-71
2022/05/15 07:41:04;;;;;;;;;;;;;;;25.28;38.04;100876.72;5003669;28;6816;-71
2022/05/15 07:43:30;;;;;;;;;;;;;;;25.42;37.89;100878.41;5001003;28;6788;-71
2022/05/15 07:45:56;;;;;;;;;;;;;;;25.56;37.54;100870.50;5005865;28;6787;-71
2022/05/15 07:48:22;;;;;;;;;;;;;;;25.67;37.04;100867.78;5001156;28;7318;-71
2022/05/15 07:50:48;;;;;;;;;;;;;;;25.74;36.98;100870.34;4989180;28;6914;-71
2022/05/15 07:53:15;;;;;;;;;;;;;;;25.81;36.71;100868.56;4988327;28;7259;-71
2022/05/15 07:55:41;;;;;;;;;;;;;;;25.85;36.65;100867.63;5020688;28;7055;-72
2022/05/15 07:58:07;;;;;;;;;;;;;;;25.90;36.60;100870.22;5004368;28;6808;-72
2022/05/15 08:00:33;;;;;;;;;;;;;;;25.95;36.47;100862.31;4999682;28;6795;-72
2022/05/15 08:03:10;;;;;;;;;;;;;;;26.00;36.20;100865.78;5002434;28;6866;-72
2022/05/15 08:08:23;;;;;;;;;;;;;;;26.16;36.28;100861.25;4997719;28;6906;-72
2022/05/15 08:10:50;;;;;;;;;;;;;;;26.19;35.65;100856.88;4988472;28;7149;-72
2022/05/15 08:13:25;;;;;;;;;;;;;;;26.22;35.36;100850.72;5004315;28;7458;-72
2022/05/15 08:15:51;;;;;;;;;;;;;;;26.24;35.08;100845.44;5019068;28;8480;-72
2022/05/15 08:23:56;;;;;;;;;;;;;;;26.55;34.85;100838.09;5002113;28;6816;-72
2022/05/15 08:26:23;;;;;;;;;;;;;;;26.69;34.82;100837.03;5001163;28;6997;-72
2022/05/15 08:28:49;;;;;;;;;;;;;;;26.96;34.87;100833.25;5002928;28;6829;-72
2022/05/15 08:31:20;;;;;;;;;;;;;;;27.26;34.28;100838.94;5004204;28;7150;-72
2022/05/15 08:33:47;;;;;;;;;;;;;;;27.57;33.58;100833.25;5007244;28;6966;-72
2022/05/15 08:36:13;;;;;;;;;;;;;;;27.94;32.87;100829.09;5003020;28;6982;-72
2022/05/15 08:38:39;;;;;;;;;;;;;;;28.37;32.35;100838.00;5004481;28;7003;-72
2022/05/15 08:41:18;;;;;;;;;;;;;;;28.95;31.97;100829.81;4995322;28;6784;-72
2022/05/15 08:44:29;;;;;;;;;;;;;;;29.63;31.52;100821.25;5002310;28;7007;-72
2022/05/15 08:47:42;;;;;;;;;;;;;;;30.22;30.39;100819.72;4981702;28;8502;-72
2022/05/15 08:50:16;;;;;;;;;;;;;;;30.72;29.71;100818.38;5000868;28;7239;-72
2022/05/15 08:53:04;;;;;;;;;;;;;;;31.15;29.62;100811.75;5003597;28;6819;-72
2022/05/15 08:55:44;;;;;;;;;;;;;;;31.66;29.07;100827.78;4978375;28;6808;-72
2022/05/15 08:58:37;;;;;;;;;;;;;;;32.08;28.07;100815.75;5002311;28;6856;-72
2022/05/15 09:01:07;;;;;;;;;;;;;;;32.42;27.70;100811.03;5004080;28;7868;-72
2022/05/15 09:03:38;;;;;;;;;;;;;;;32.73;27.48;100815.19;4985269;28;7632;-72
2022/05/15 09:06:15;;;;;;;;;;;;;;;33.07;26.92;100813.00;5001939;28;7076;-72
2022/05/15 09:09:06;;;;;;;;;;;;;;;33.38;26.53;100809.13;5003236;28;6808;-72
2022/05/15 09:11:53;;;;;;;;;;;;;;;33.63;26.15;100801.00;5002566;28;7457;-72
2022/05/15 09:15:01;;;;;;;;;;;;;;;33.87;25.34;100798.19;5002833;28;6799;-72
2022/05/15 09:17:35;;;;;;;;;;;;;;;34.16;25.38;100803.22;5004390;28;6827;-72
2022/05/15 09:20:19;;;;;;;;;;;;;;;34.48;24.66;100796.41;5004485;28;7046;-72
2022/05/15 09:23:05;;;;;;;;;;;;;;;34.75;24.33;100800.53;5004369;28;6804;-72
2022/05/15 09:25:37;;;;;;;;;;;;;;;35.08;24.41;100799.84;4999626;28;6896;-72
2022/05/15 09:28:11;;;;;;;;;;;;;;;35.48;24.04;100804.13;5006017;28;6808;-73
2022/05/15 09:30:46;;;;;;;;;;;;;;;35.74;23.51;100797.50;5002554;28;6803;-73
2022/05/15 09:33:43;;;;;;;;;;;;;;;35.98;23.36;100797.13;5002677;28;7333;-73
2022/05/15 09:36:26;;;;;;;;;;;;;;;36.23;23.58;100793.19;4987900;28;7149;-72
2022/05/15 09:39:10;;;;;;;;;;;;;;;36.48;22.82;100784.69;5003683;28;6800;-72
2022/05/15 09:44:35;;;;;;;;;;;;;;;36.95;21.64;100782.97;4998362;28;6904;-72
2022/05/15 09:47:31;;;;;;;;;;;;;;;37.15;20.98;100778.31;4997880;28;6815;-72
2022/05/15 09:49:57;;;;;;;;;;;;;;;37.20;21.09;100775.38;4983857;28;6804;-73
2022/05/15 09:52:34;;;;;;;;;;;;;;;37.24;20.76;100766.25;4996095;28;7215;-72
2022/05/15 09:55:23;;;;;;;;;;;;;;;37.22;20.93;100768.13;5003639;28;7082;-72
2022/05/15 09:58:19;;;;;;;;;;;;;;;37.31;20.60;100772.91;5003318;28;6856;-72
2022/05/15 10:00:45;;;;;;;;;;;;;;;37.35;20.57;100773.59;5004305;28;6901;-72
2022/05/15 10:03:25;;;;;;;;;;;;;;;37.44;20.42;100773.03;4999314;28;6804;-72
2022/05/15 10:06:07;;;;;;;;;;;;;;;37.57;20.51;100767.00;5001219;28;6812;-72
2022/05/15 10:08:33;;;;;;;;;;;;;;;37.72;20.41;100765.22;5002809;28;6815;-72
2022/05/15 10:11:12;;;;;;;;;;;;;;;38.01;20.43;100766.09;5000534;28;6986;-72
2022/05/15 10:14:00;;;;;;;;;;;;;;;38.20;19.91;100764.94;5001776;28;7161;-72
2022/05/15 10:16:40;;;;;;;;;;;;;;;38.32;19.81;100757.97;4998232;28;6804;-72
2022/05/15 10:19:15;;;;;;;;;;;;;;;38.50;19.99;100753.25;4992106;28;6815;-72
2022/05/15 10:21:55;;;;;;;;;;;;;;;38.76;19.98;100758.72;5001703;28;6959;-72
2022/05/15 10:24:31;;;;;;;;;;;;;;;39.09;19.74;100751.25;5000272;28;6812;-72
2022/05/15 10:27:27;;;;;;;;;;;;;;;39.37;19.25;100750.22;5004823;28;7054;-72
2022/05/15 10:30:28;;;;;;;;;;;;;;;39.52;19.06;100755.53;4992008;28;6845;-72
2022/05/15 10:33:19;;;;;;;;;;;;;;;39.55;18.76;100745.44;4987502;28;6836;-72
2022/05/15 10:36:06;;;;;;;;;;;;;;;39.42;18.90;100755.28;5002873;28;7067;-72
2022/05/15 10:38:57;;;;;;;;;;;;;;;39.39;18.99;100748.28;5002702;28;7023;-72
2022/05/15 10:41:44;;;;;;;;;;;;;;;39.30;18.82;100735.50;5000234;28;6852;-72
2022/05/15 10:44:55;;;;;;;;;;;;;;;38.99;18.85;100733.13;5004779;28;7988;-72
2022/05/15 10:47:37;;;;;;;;;;;;;;;38.42;19.04;100735.00;5003256;28;6820;-72
2022/05/15 10:50:55;;;;;;;;;;;;;;;37.63;19.14;100739.88;5001585;28;7063;-72
2022/05/15 10:59:59;;;;;;;;;;;;;;;36.21;20.59;100728.38;4998924;28;7084;-72
2022/05/15 11:03:23;;;;;;;;;;;;;;;36.53;20.26;100723.06;5003263;28;7353;-72
2022/05/15 11:06:35;;;;;;;;;;;;;;;36.93;20.07;100722.59;5000291;28;6823;-72
2022/05/15 11:09:21;;;;;;;;;;;;;;;37.34;19.84;100715.78;4997801;28;6816;-72
2022/05/15 11:12:19;;;;;;;;;;;;;;;37.71;19.50;100705.53;4997992;28;6788;-72
2022/05/15 11:15:34;;;;;;;;;;;;;;;38.10;19.53;100704.97;4994337;28;7931;-72
2022/05/15 11:18:45;;;;;;;;;;;;;;;38.47;18.97;100702.56;5002436;28;6823;-72
2022/05/15 11:21:27;;;;;;;;;;;;;;;38.66;18.60;100696.03;4995848;28;6828;-72
2022/05/15 11:24:03;;;;;;;;;;;;;;;38.81;18.67;100702.19;4994885;28;6883;-72
2022/05/15 11:26:45;;;;;;;;;;;;;;;39.05;18.81;100696.16;4997809;28;8477;-73
2022/05/15 11:29:18;;;;;;;;;;;;;;;39.36;18.40;100700.25;4999490;28;6820;-73
2022/05/15 11:31:56;;;;;;;;;;;;;;;39.30;18.51;100700.66;5000797;28;7365;-73
2022/05/15 11:35:13;;;;;;;;;;;;;;;39.11;18.32;100693.06;4987622;28;6876;-72
2022/05/15 11:37:38;;;;;;;;;;;;;;;38.53;18.20;100685.28;4998153;28;7010;-72
2022/05/15 11:40:28;;;;;;;;;;;;;;;38.26;18.30;100684.28;5002344;28;6864;-72
2022/05/15 11:42:54;;;;;;;;;;;;;;;38.37;18.27;100688.91;4993931;28;6926;-72
2022/05/15 11:45:29;;;;;;;;;;;;;;;38.65;18.18;100673.75;5000388;28;6851;-72
2022/05/15 11:48:17;;;;;;;;;;;;;;;38.84;18.02;100667.16;5000564;28;6808;-73
2022/05/15 11:51:12;;;;;;;;;;;;;;;38.90;17.95;100659.56;5000324;28;6812;-73
2022/05/15 11:53:53;;;;;;;;;;;;;;;38.88;17.82;100653.44;4994512;28;6895;-73
2022/05/15 11:56:41;;;;;;;;;;;;;;;38.81;17.65;100656.66;4995095;28;6811;-72
2022/05/15 11:59:15;;;;;;;;;;;;;;;38.74;17.93;100656.22;4993740;28;6989;-72
2022/05/15 12:01:59;;;;;;;;;;;;;;;38.85;17.81;100656.34;5013240;28;7031;-73
2022/05/15 12:04:34;;;;;;;;;;;;;;;38.90;17.83;100654.19;4982132;28;7347;-73
2022/05/15 12:06:59;;;;;;;;;;;;;;;39.11;17.79;100643.00;5015415;28;6891;-73
2022/05/15 12:09:39;;;;;;;;;;;;;;;39.43;16.96;100641.75;5003641;28;6816;-73
2022/05/15 12:12:32;;;;;;;;;;;;;;;39.72;16.95;100634.31;5011451;28;6819;-73
2022/05/15 12:15:22;;;;;;;;;;;;;;;39.87;16.73;100633.34;5017420;28;7202;-73
2022/05/15 12:17:59;;;;;;;;;;;;;;;39.92;16.84;100637.41;4998365;28;6900;-73
2022/05/15 12:20:28;;;;;;;;;;;;;;;39.90;16.84;100631.28;4981312;28;7194;-73
2022/05/15 12:23:21;;;;;;;;;;;;;;;40.09;16.93;100632.63;4994651;28;6815;-73
2022/05/15 12:26:32;;;;;;;;;;;;;;;40.19;16.94;100628.28;5004546;28;6831;-72
2022/05/15 12:29:18;;;;;;;;;;;;;;;40.24;16.67;100634.16;5000651;28;6839;-72
2022/05/15 12:31:46;;;;;;;;;;;;;;;40.07;16.62;100629.16;4990570;28;8127;-72
2022/05/15 12:34:20;;;;;;;;;;;;;;;39.60;16.67;100619.13;4990615;28;6976;-72
2022/05/15 12:37:00;;;;;;;;;;;;;;;38.99;16.74;100609.91;5005157;28;6883;-72
2022/05/15 12:39:33;;;;;;;;;;;;;;;38.29;16.84;100619.88;4994788;28;7000;-73
2022/05/15 12:42:35;;;;;;;;;;;;;;;37.51;17.08;100619.38;5004594;28;6828;-73
2022/05/15 12:45:04;;;;;;;;;;;;;;;36.97;17.41;100615.50;5003553;28;6970;-72
2022/05/15 12:47:32;;;;;;;;;;;;;;;36.87;17.69;100608.16;4996822;28;7887;-72
2022/05/15 12:50:31;;;;;;;;;;;;;;;36.92;17.64;100606.03;5002154;28;6811;-73
2022/05/15 12:53:02;;;;;;;;;;;;;;;37.07;18.08;100605.16;4999630;28;7240;-72
2022/05/15 12:55:35;;;;;;;;;;;;;;;37.20;17.84;100591.03;4976485;28;6828;-72
2022/05/15 12:58:07;;;;;;;;;;;;;;;37.38;17.66;100587.22;5009699;28;6843;-72
2022/05/15 13:00:42;;;;;;;;;;;;;;;37.56;17.37;100583.50;5003040;28;6812;-72
2022/05/15 13:03:12;;;;;;;;;;;;;;;37.70;17.20;100579.97;5005913;28;6820;-73
2022/05/15 13:05:52;;;;;;;;;;;;;;;37.76;17.22;100576.91;4987856;28;6807;-73
2022/05/15 13:08:19;;;;;;;;;;;;;;;37.87;17.16;100570.88;5003573;28;6831;-73
2022/05/15 13:11:02;;;;;;;;;;;;;;;38.05;17.02;100575.06;4987474;28;6878;-70
2022/05/15 13:13:37;;;;;;;;;;;;;;;38.30;17.17;100573.41;4986788;28;6800;-71
2022/05/15 13:16:07;;;;;;;;;;;;;;;38.60;16.92;100572.31;4980356;28;7158;-71
2022/05/15 13:18:36;;;;;;;;;;;;;;;38.69;16.36;100567.31;5007991;28;8129;-71
2022/05/15 13:21:08;;;;;;;;;;;;;;;38.49;16.23;100572.19;4984760;28;7019;-71
2022/05/15 13:23:46;;;;;;;;;;;;;;;38.51;16.55;100566.75;4994982;28;7356;-71
2022/05/15 13:26:24;;;;;;;;;;;;;;;38.55;16.50;100561.09;4985712;28;6800;-71
2022/05/15 13:28:51;;;;;;;;;;;;;;;38.37;16.42;100564.97;5001414;28;6971;-71
2022/05/15 13:31:16;;;;;;;;;;;;;;;38.23;16.50;100568.59;4997865;28;6891;-71
2022/05/15 13:33:45;;;;;;;;;;;;;;;38.12;16.59;100566.59;4994490;28;6792;-71
2022/05/15 13:36:16;;;;;;;;;;;;;;;38.05;16.21;100568.84;5005917;28;6962;-71